sensor_id;sensor_type;location;lat;lon;timestamp;pressure;altitude;pressure_sealevel;temperature;humidity
53011;BME280;42803;55.762;38.084;2022-12-13T00:01:57;98585.31;;;-0.89;100.00
53011;BME280;42803;55.762;38.084;2022-12-13T00:04:26;98588.63;;;-0.90;100.00
53011;BME280;42803;55.762;38.084;2022-12-13T00:06:56;98586.06;;;-0.90;100.00
53011;BME280;42803;55.762;38.084;2022-12-13T00:09:26;98588.44;;;-0.92;100.00
53011;BME280;42803;55.762;38.084;2022-12-13T00:11:55;98584.97;;;-0.92;100.00
53011;BME280;42803;55.762;38.084;2022-12-13T00:14:24;98581.19;;;-0.96;100.00
53011;BME280;42803;55.762;38.084;2022-12-13T00:16:53;98581.19;;;-0.96;100.00
53011;BME280;42803;55.762;38.084;2022-12-13T00:19:22;98583.75;;;-0.96;100.00
53011;BME280;42803;55.762;38.084;2022-12-13T00:21:51;98579.53;;;-0.95;100.00
53011;BME280;42803;55.762;38.084;2022-12-13T00:24:20;98578.63;;;-0.96;100.00
53011;BME280;42803;55.762;38.084;2022-12-13T00:26:53;98587.97;;;-0.96;100.00
53011;BME280;42803;55.762;38.084;2022-12-13T00:29:22;98592.31;;;-0.95;100.00
53011;BME280;42803;55.762;38.084;2022-12-13T00:31:51;98588.84;;;-0.96;100.00
53011;BME280;42803;55.762;38.084;2022-12-13T00:34:26;98584.63;;;-0.95;100.00
53011;BME280;42803;55.762;38.084;2022-12-13T00:36:56;98583.75;;;-0.96;100.00
53011;BME280;42803;55.762;38.084;2022-12-13T00:39:27;98573.34;;;-0.98;100.00
53011;BME280;42803;55.762;38.084;2022-12-13T00:41:57;98581.19;;;-0.96;100.00
53011;BME280;42803;55.762;38.084;2022-12-13T00:44:27;98580.47;;;-0.95;100.00
53011;BME280;42803;55.762;38.084;2022-12-13T00:46:56;98583.75;;;-0.96;100.00
53011;BME280;42803;55.762;38.084;2022-12-13T00:49:25;98588.84;;;-0.96;100.00
53011;BME280;42803;55.762;38.084;2022-12-13T00:51:54;98586.63;;;-0.93;100.00
53011;BME280;42803;55.762;38.084;2022-12-13T00:54:23;98582.59;;;-0.91;100.00
53011;BME280;42803;55.762;38.084;2022-12-13T00:56:53;98592.09;;;-0.90;100.00
53011;BME280;42803;55.762;38.084;2022-12-13T00:59:24;98590.56;;;-0.88;100.00
53011;BME280;42803;55.762;38.084;2022-12-13T01:01:53;98583.22;;;-0.85;100.00
53011;BME280;42803;55.762;38.084;2022-12-13T01:04:22;98573.88;;;-0.84;100.00
53011;BME280;42803;55.762;38.084;2022-12-13T01:06:51;98588.69;;;-0.82;100.00
53011;BME280;42803;55.762;38.084;2022-12-13T01:09:23;98581.00;;;-0.82;100.00
53011;BME280;42803;55.762;38.084;2022-12-13T01:11:56;98575.28;;;-0.79;100.00
53011;BME280;42803;55.762;38.084;2022-12-13T01:14:27;98569.41;;;-0.78;100.00
53011;BME280;42803;55.762;38.084;2022-12-13T01:16:58;98572.88;;;-0.78;100.00
53011;BME280;42803;55.762;38.084;2022-12-13T01:19:28;98563.38;;;-0.79;100.00
53011;BME280;42803;55.762;38.084;2022-12-13T01:21:58;98567.00;;;-0.77;100.00
53011;BME280;42803;55.762;38.084;2022-12-13T01:24:27;98570.50;;;-0.76;100.00
53011;BME280;42803;55.762;38.084;2022-12-13T01:26:57;98565.19;;;-0.78;100.00
53011;BME280;42803;55.762;38.084;2022-12-13T01:29:27;98567.75;;;-0.78;100.00
53011;BME280;42803;55.762;38.084;2022-12-13T01:31:56;98563.72;;;-0.76;100.00
53011;BME280;42803;55.762;38.084;2022-12-13T01:34:25;98573.22;;;-0.75;100.00
53011;BME280;42803;55.762;38.084;2022-12-13T01:36:55;98582.88;;;-0.72;100.00
53011;BME280;42803;55.762;38.084;2022-12-13T01:39:25;98576.66;;;-0.74;100.00
53011;BME280;42803;55.762;38.084;2022-12-13T01:41:55;98578.75;;;-0.79;100.00
53011;BME280;42803;55.762;38.084;2022-12-13T01:47:40;98572.97;;;-0.85;100.00
53011;BME280;42803;55.762;38.084;2022-12-13T01:50:13;98584.31;;;-0.83;100.00
53011;BME280;42803;55.762;38.084;2022-12-13T01:52:44;98584.31;;;-0.83;100.00
53011;BME280;42803;55.762;38.084;2022-12-13T01:55:17;98579.34;;;-0.81;100.00
53011;BME280;42803;55.762;38.084;2022-12-13T01:57:49;98578.44;;;-0.82;100.00
53011;BME280;42803;55.762;38.084;2022-12-13T02:00:19;98580.66;;;-0.85;100.00
53011;BME280;42803;55.762;38.084;2022-12-13T02:02:50;98572.81;;;-0.86;100.00
53011;BME280;42803;55.762;38.084;2022-12-13T02:05:24;98584.56;;;-0.88;100.00
53011;BME280;42803;55.762;38.084;2022-12-13T02:07:56;98580.31;;;-0.88;100.00
53011;BME280;42803;55.762;38.084;2022-12-13T02:10:26;98589.53;;;-0.90;100.00
53011;BME280;42803;55.762;38.084;2022-12-13T02:12:55;98576.56;;;-0.91;100.00
53011;BME280;42803;55.762;38.084;2022-12-13T02:15:27;98582.59;;;-0.91;100.00
53011;BME280;42803;55.762;38.084;2022-12-13T02:18:14;98580.59;;;-0.93;100.00
53011;BME280;42803;55.762;38.084;2022-12-13T02:21:20;98588.84;;;-0.96;100.00
53011;BME280;42803;55.762;38.084;2022-12-13T02:27:00;98595.81;;;-0.95;100.00
53011;BME280;42803;55.762;38.084;2022-12-13T02:32:58;98589.94;;;-0.94;100.00
53011;BME280;42803;55.762;38.084;2022-12-13T02:35:38;98579.84;;;-0.92;100.00
53011;BME280;42803;55.762;38.084;2022-12-13T02:38:15;98577.78;;;-0.88;100.00
53011;BME280;42803;55.762;38.084;2022-12-13T02:40:54;98581.75;;;-0.83;100.00
53011;BME280;42803;55.762;38.084;2022-12-13T02:43:29;98586.25;;;-0.80;100.00
53011;BME280;42803;55.762;38.084;2022-12-13T02:46:01;98587.19;;;-0.80;100.00
53011;BME280;42803;55.762;38.084;2022-12-13T02:48:36;98595.94;;;-0.78;100.00
53011;BME280;42803;55.762;38.084;2022-12-13T02:51:09;98591.13;;;-0.75;100.00
53011;BME280;42803;55.762;38.084;2022-12-13T02:53:40;98591.47;;;-0.71;100.00
53011;BME280;42803;55.762;38.084;2022-12-13T02:56:09;98583.78;;;-0.71;100.00
53011;BME280;42803;55.762;38.084;2022-12-13T02:58:43;98584.13;;;-0.68;100.00
53011;BME280;42803;55.762;38.084;2022-12-13T03:01:35;98590.63;;;-0.63;100.00
53011;BME280;42803;55.762;38.084;2022-12-13T03:04:13;98585.50;;;-0.63;100.00
53011;BME280;42803;55.762;38.084;2022-12-13T03:07:00;98588.81;;;-0.64;100.00
53011;BME280;42803;55.762;38.084;2022-12-13T03:09:43;98580.38;;;-0.63;100.00
53011;BME280;42803;55.762;38.084;2022-12-13T03:12:22;98593.31;;;-0.62;100.00
53011;BME280;42803;55.762;38.084;2022-12-13T03:15:15;98603.00;;;-0.59;100.00
53011;BME280;42803;55.762;38.084;2022-12-13T03:17:49;98595.78;;;-0.55;100.00
53011;BME280;42803;55.762;38.084;2022-12-13T03:20:25;98596.88;;;-0.53;100.00
53011;BME280;42803;55.762;38.084;2022-12-13T03:22:55;98595.22;;;-0.52;100.00
53011;BME280;42803;55.762;38.084;2022-12-13T03:25:27;98592.47;;;-0.54;100.00
53011;BME280;42803;55.762;38.084;2022-12-13T03:28:00;98591.88;;;-0.51;100.00
53011;BME280;42803;55.762;38.084;2022-12-13T03:30:30;98584.53;;;-0.48;100.00
53011;BME280;42803;55.762;38.084;2022-12-13T03:32:59;98584.53;;;-0.48;100.00
53011;BME280;42803;55.762;38.084;2022-12-13T03:35:30;98578.31;;;-0.50;100.00
53011;BME280;42803;55.762;38.084;2022-12-13T03:38:01;98585.28;;;-0.49;100.00
53011;BME280;42803;55.762;38.084;2022-12-13T03:40:32;98580.16;;;-0.49;100.00
53011;BME280;42803;55.762;38.084;2022-12-13T03:43:02;98587.41;;;-0.45;100.00
53011;BME280;42803;55.762;38.084;2022-12-13T03:45:32;98581.22;;;-0.47;100.00
53011;BME280;42803;55.762;38.084;2022-12-13T03:48:01;98579.56;;;-0.46;100.00
53011;BME280;42803;55.762;38.084;2022-12-13T03:50:31;98577.16;;;-0.45;100.00
53011;BME280;42803;55.762;38.084;2022-12-13T03:53:01;98579.72;;;-0.45;100.00
53011;BME280;42803;55.762;38.084;2022-12-13T03:55:30;98587.75;;;-0.42;100.00
53011;BME280;42803;55.762;38.084;2022-12-13T03:57:59;98591.34;;;-0.40;100.00
53011;BME280;42803;55.762;38.084;2022-12-13T04:00:34;98581.84;;;-0.41;100.00
53011;BME280;42803;55.762;38.084;2022-12-13T04:03:03;98592.88;;;-0.42;100.00
53011;BME280;42803;55.762;38.084;2022-12-13T04:05:34;98588.78;;;-0.40;100.00
53011;BME280;42803;55.762;38.084;2022-12-13T04:08:03;98588.22;;;-0.37;100.00
53011;BME280;42803;55.762;38.084;2022-12-13T04:10:48;98587.59;;;-0.35;100.00
53011;BME280;42803;55.762;38.084;2022-12-13T04:13:17;98595.00;;;-0.38;100.00
53011;BME280;42803;55.762;38.084;2022-12-13T04:16:01;98598.47;;;-0.37;100.00
53011;BME280;42803;55.762;38.084;2022-12-13T04:18:30;98592.59;;;-0.36;100.00
53011;BME280;42803;55.762;38.084;2022-12-13T04:21:01;98586.69;;;-0.35;100.00
53011;BME280;42803;55.762;38.084;2022-12-13T04:23:30;98589.44;;;-0.34;100.00
53011;BME280;42803;55.762;38.084;2022-12-13T04:26:00;98589.44;;;-0.34;100.00
53011;BME280;42803;55.762;38.084;2022-12-13T04:28:30;98592.28;;;-0.31;100.00
53011;BME280;42803;55.762;38.084;2022-12-13T04:31:00;98594.47;;;-0.27;100.00
53011;BME280;42803;55.762;38.084;2022-12-13T04:33:29;98581.31;;;-0.30;100.00
53011;BME280;42803;55.762;38.084;2022-12-13T04:36:01;98585.69;;;-0.29;100.00
53011;BME280;42803;55.762;38.084;2022-12-13T04:38:29;98594.28;;;-0.28;100.00
53011;BME280;42803;55.762;38.084;2022-12-13T04:41:13;98592.94;;;-0.25;100.00
53011;BME280;42803;55.762;38.084;2022-12-13T04:43:43;98596.59;;;-0.22;100.00
53011;BME280;42803;55.762;38.084;2022-12-13T04:46:13;98605.34;;;-0.20;100.00
53011;BME280;42803;55.762;38.084;2022-12-13T04:48:42;98610.31;;;-0.22;100.00
53011;BME280;42803;55.762;38.084;2022-12-13T04:51:14;98610.44;;;0.04;100.00
53011;BME280;42803;55.762;38.084;2022-12-13T04:53:43;98609.44;;;0.19;100.00
53011;BME280;42803;55.762;38.084;2022-12-13T04:56:12;98603.91;;;0.32;100.00
53011;BME280;42803;55.762;38.084;2022-12-13T04:58:42;98605.38;;;0.30;100.00
53011;BME280;42803;55.762;38.084;2022-12-13T05:01:12;98603.09;;;0.16;100.00
53011;BME280;42803;55.762;38.084;2022-12-13T05:03:42;98613.19;;;0.14;100.00
53011;BME280;42803;55.762;38.084;2022-12-13T05:06:13;98608.06;;;0.14;100.00
53011;BME280;42803;55.762;38.084;2022-12-13T05:08:54;98607.00;;;0.12;100.00
53011;BME280;42803;55.762;38.084;2022-12-13T05:11:27;98609.88;;;0.15;100.00
53011;BME280;42803;55.762;38.084;2022-12-13T05:14:02;98607.34;;;0.24;100.00
53011;BME280;42803;55.762;38.084;2022-12-13T05:16:31;98607.16;;;0.14;100.00
53011;BME280;42803;55.762;38.084;2022-12-13T05:19:01;98607.59;;;0.18;100.00
53011;BME280;42803;55.762;38.084;2022-12-13T05:21:31;98595.53;;;0.17;100.00
53011;BME280;42803;55.762;38.084;2022-12-13T05:24:01;98595.84;;;0.20;100.00
53011;BME280;42803;55.762;38.084;2022-12-13T05:26:31;98605.38;;;0.21;100.00
53011;BME280;42803;55.762;38.084;2022-12-13T05:29:00;98600.31;;;0.39;100.00
53011;BME280;42803;55.762;38.084;2022-12-13T05:31:28;98605.44;;;0.39;100.00
53011;BME280;42803;55.762;38.084;2022-12-13T05:33:58;98612.81;;;0.36;100.00
53011;BME280;42803;55.762;38.084;2022-12-13T05:36:30;98602.69;;;0.29;100.00
53011;BME280;42803;55.762;38.084;2022-12-13T05:38:59;98612.00;;;0.19;100.00
53011;BME280;42803;55.762;38.084;2022-12-13T05:41:31;98615.44;;;0.11;100.00
53011;BME280;42803;55.762;38.084;2022-12-13T05:44:01;98616.63;;;0.06;100.00
53011;BME280;42803;55.762;38.084;2022-12-13T05:46:31;98616.63;;;0.06;100.00
53011;BME280;42803;55.762;38.084;2022-12-13T05:49:07;98611.50;;;0.06;100.00
53011;BME280;42803;55.762;38.084;2022-12-13T05:51:38;98608.94;;;0.06;100.00
53011;BME280;42803;55.762;38.084;2022-12-13T05:54:07;98621.75;;;0.06;100.00
53011;BME280;42803;55.762;38.084;2022-12-13T05:56:36;98614.81;;;0.05;100.00
53011;BME280;42803;55.762;38.084;2022-12-13T05:59:05;98620.84;;;0.06;100.00
53011;BME280;42803;55.762;38.084;2022-12-13T06:01:34;98622.50;;;0.05;100.00
53011;BME280;42803;55.762;38.084;2022-12-13T06:04:11;98621.16;;;0.09;100.00
53011;BME280;42803;55.762;38.084;2022-12-13T06:06:51;98615.88;;;0.07;100.00
53011;BME280;42803;55.762;38.084;2022-12-13T06:09:21;98621.75;;;0.06;100.00
53011;BME280;42803;55.762;38.084;2022-12-13T06:11:50;98611.50;;;0.06;100.00
53011;BME280;42803;55.762;38.084;2022-12-13T06:14:28;98606.03;;;0.03;100.00
53011;BME280;42803;55.762;38.084;2022-12-13T06:16:57;98616.63;;;0.06;100.00
53011;BME280;42803;55.762;38.084;2022-12-13T06:19:26;98620.84;;;0.06;100.00
53011;BME280;42803;55.762;38.084;2022-12-13T06:21:56;98621.00;;;0.07;100.00
53011;BME280;42803;55.762;38.084;2022-12-13T06:24:25;98620.28;;;0.08;100.00
53011;BME280;42803;55.762;38.084;2022-12-13T06:26:55;98616.03;;;0.09;100.00
53011;BME280;42803;55.762;38.084;2022-12-13T06:29:25;98618.44;;;0.07;100.00
53011;BME280;42803;55.762;38.084;2022-12-13T06:31:56;98620.84;;;0.06;100.00
53011;BME280;42803;55.762;38.084;2022-12-13T06:34:31;98625.06;;;0.05;100.00
53011;BME280;42803;55.762;38.084;2022-12-13T06:37:05;98618.44;;;0.07;100.00
53011;BME280;42803;55.762;38.084;2022-12-13T06:39:34;98624.50;;;0.08;100.00
53011;BME280;42803;55.762;38.084;2022-12-13T06:42:04;98632.03;;;0.06;100.00
53011;BME280;42803;55.762;38.084;2022-12-13T06:44:35;98645.16;;;0.09;100.00
53011;BME280;42803;55.762;38.084;2022-12-13T06:47:04;98639.72;;;0.06;100.00
53011;BME280;42803;55.762;38.084;2022-12-13T06:49:39;98647.41;;;0.06;100.00
53011;BME280;42803;55.762;38.084;2022-12-13T06:52:13;98645.94;;;0.08;100.00
53011;BME280;42803;55.762;38.084;2022-12-13T06:54:42;98660.56;;;0.09;100.00
53011;BME280;42803;55.762;38.084;2022-12-13T06:57:12;98657.25;;;0.10;100.00
53011;BME280;42803;55.762;38.084;2022-12-13T06:59:41;98664.69;;;0.16;100.00
53011;BME280;42803;55.762;38.084;2022-12-13T07:02:10;98667.38;;;0.17;100.00
53011;BME280;42803;55.762;38.084;2022-12-13T07:04:53;98672.53;;;0.17;100.00
53011;BME280;42803;55.762;38.084;2022-12-13T07:07:24;98674.31;;;0.18;100.00
53011;BME280;42803;55.762;38.084;2022-12-13T07:09:53;98676.47;;;0.22;100.00
53011;BME280;42803;55.762;38.084;2022-12-13T07:12:23;98684.16;;;0.22;100.00
53011;BME280;42803;55.762;38.084;2022-12-13T07:14:52;98687.66;;;0.23;100.00
53011;BME280;42803;55.762;38.084;2022-12-13T07:17:21;98686.44;;;0.19;100.00
53011;BME280;42803;55.762;38.084;2022-12-13T07:20:03;98693.03;;;0.17;100.00
53011;BME280;42803;55.762;38.084;2022-12-13T07:22:37;98683.69;;;0.18;100.00
53011;BME280;42803;55.762;38.084;2022-12-13T07:25:14;98687.34;;;0.20;100.00
53011;BME280;42803;55.762;38.084;2022-12-13T07:27:59;98686.44;;;0.19;100.00
53011;BME280;42803;55.762;38.084;2022-12-13T07:30:31;98681.94;;;0.34;100.00
53011;BME280;42803;55.762;38.084;2022-12-13T07:33:08;98692.06;;;0.33;100.00
53011;BME280;42803;55.762;38.084;2022-12-13T07:35:37;98704.56;;;0.30;100.00
53011;BME280;42803;55.762;38.084;2022-12-13T07:38:10;98694.31;;;0.30;100.00
53011;BME280;42803;55.762;38.084;2022-12-13T07:40:39;98705.19;;;0.27;100.00
53011;BME280;42803;55.762;38.084;2022-12-13T07:43:09;98697.75;;;0.55;100.00
53011;BME280;42803;55.762;38.084;2022-12-13T07:45:38;98702.59;;;0.60;100.00
53011;BME280;42803;55.762;38.084;2022-12-13T07:48:07;98706.22;;;0.62;100.00
53011;BME280;42803;55.762;38.084;2022-12-13T07:50:36;98705.59;;;0.56;100.00
53011;BME280;42803;55.762;38.084;2022-12-13T07:53:06;98699.88;;;0.59;100.00
53011;BME280;42803;55.762;38.084;2022-12-13T07:55:37;98697.66;;;0.37;100.00
53011;BME280;42803;55.762;38.084;2022-12-13T07:58:07;98702.91;;;0.30;100.00
53011;BME280;42803;55.762;38.084;2022-12-13T08:00:36;98701.41;;;0.23;100.00
53011;BME280;42803;55.762;38.084;2022-12-13T08:03:06;98709.19;;;0.16;100.00
53011;BME280;42803;55.762;38.084;2022-12-13T08:05:57;98702.25;;;0.15;100.00
53011;BME280;42803;55.762;38.084;2022-12-13T08:08:26;98701.94;;;0.12;100.00
53011;BME280;42803;55.762;38.084;2022-12-13T08:11:03;98708.88;;;0.13;100.00
53011;BME280;42803;55.762;38.084;2022-12-13T08:13:32;98704.19;;;0.09;100.00
53011;BME280;42803;55.762;38.084;2022-12-13T08:16:05;98707.50;;;0.08;100.00
53011;BME280;42803;55.762;38.084;2022-12-13T08:18:55;98715.66;;;0.13;100.00
53011;BME280;42803;55.762;38.084;2022-12-13T08:21:34;98713.56;;;0.17;100.00
53011;BME280;42803;55.762;38.084;2022-12-13T08:24:23;98719.63;;;0.18;100.00
53011;BME280;42803;55.762;38.084;2022-12-13T08:26:57;98720.03;;;0.14;100.00
53011;BME280;42803;55.762;38.084;2022-12-13T08:29:30;98728.97;;;0.17;100.00
53011;BME280;42803;55.762;38.084;2022-12-13T08:32:07;98720.22;;;0.15;100.00
53011;BME280;42803;55.762;38.084;2022-12-13T08:34:37;98725.75;;;0.11;100.00
53011;BME280;42803;55.762;38.084;2022-12-13T08:37:06;98729.56;;;0.15;100.00
53011;BME280;42803;55.762;38.084;2022-12-13T08:39:36;98733.53;;;0.20;100.00
53011;BME280;42803;55.762;38.084;2022-12-13T08:42:09;98737.56;;;0.18;100.00
53011;BME280;42803;55.762;38.084;2022-12-13T08:44:46;98731.22;;;0.14;100.00
53011;BME280;42803;55.762;38.084;2022-12-13T08:47:17;98726.56;;;0.19;100.00
53011;BME280;42803;55.762;38.084;2022-12-13T08:49:52;98736.88;;;0.28;100.00
53011;BME280;42803;55.762;38.084;2022-12-13T08:52:32;98735.22;;;0.28;100.00
53011;BME280;42803;55.762;38.084;2022-12-13T08:55:08;98732.09;;;0.31;100.00
53011;BME280;42803;55.762;38.084;2022-12-13T08:57:40;98732.69;;;0.37;100.00
53011;BME280;42803;55.762;38.084;2022-12-13T09:00:11;98730.88;;;0.36;100.00
53011;BME280;42803;55.762;38.084;2022-12-13T09:02:41;98741.16;;;0.36;100.00
53011;BME280;42803;55.762;38.084;2022-12-13T09:05:11;98747.94;;;0.35;100.00
53011;BME280;42803;55.762;38.084;2022-12-13T09:08:01;98756.56;;;0.36;100.00
53011;BME280;42803;55.762;38.084;2022-12-13T09:10:57;98753.22;;;0.37;100.00
53011;BME280;42803;55.762;38.084;2022-12-13T09:13:29;98747.19;;;0.36;100.00
53011;BME280;42803;55.762;38.084;2022-12-13T09:16:03;98760.50;;;0.41;100.00
53011;BME280;42803;55.762;38.084;2022-12-13T09:18:49;98766.53;;;0.41;100.00
53011;BME280;42803;55.762;38.084;2022-12-13T09:21:22;98763.16;;;0.34;100.00
53011;BME280;42803;55.762;38.084;2022-12-13T09:23:59;98766.94;;;0.29;100.00
53011;BME280;42803;55.762;38.084;2022-12-13T09:26:29;98771.16;;;0.28;100.00
53011;BME280;42803;55.762;38.084;2022-12-13T09:29:06;98762.13;;;0.32;100.00
53011;BME280;42803;55.762;38.084;2022-12-13T09:31:38;98769.06;;;0.33;100.00
53011;BME280;42803;55.762;38.084;2022-12-13T09:34:08;98759.88;;;0.35;100.00
53011;BME280;42803;55.762;38.084;2022-12-13T09:36:37;98752.31;;;0.36;100.00
53011;BME280;42803;55.762;38.084;2022-12-13T09:39:06;98766.06;;;0.37;100.00
53011;BME280;42803;55.762;38.084;2022-12-13T09:41:39;98769.22;;;0.34;100.00
53011;BME280;42803;55.762;38.084;2022-12-13T09:44:17;98770.75;;;0.41;100.00
53011;BME280;42803;55.762;38.084;2022-12-13T09:47:01;98768.53;;;0.44;100.00
53011;BME280;42803;55.762;38.084;2022-12-13T09:49:43;98767.75;;;0.45;100.00
53011;BME280;42803;55.762;38.084;2022-12-13T09:52:22;98765.38;;;0.46;100.00
53011;BME280;42803;55.762;38.084;2022-12-13T09:54:59;98780.34;;;0.51;100.00
53011;BME280;42803;55.762;38.084;2022-12-13T09:57:34;98776.38;;;0.45;100.00
53011;BME280;42803;55.762;38.084;2022-12-13T10:00:10;98767.19;;;0.47;100.00
53011;BME280;42803;55.762;38.084;2022-12-13T10:02:43;98770.50;;;0.46;100.00
53011;BME280;42803;55.762;38.084;2022-12-13T10:05:19;98773.22;;;0.48;100.00
53011;BME280;42803;55.762;38.084;2022-12-13T10:08:06;98774.13;;;0.48;100.00
53011;BME280;42803;55.762;38.084;2022-12-13T10:10:36;98783.97;;;0.53;100.00
53011;BME280;42803;55.762;38.084;2022-12-13T10:13:13;98783.50;;;0.48;100.00
53011;BME280;42803;55.762;38.084;2022-12-13T10:15:50;98776.53;;;0.47;100.00
53011;BME280;42803;55.762;38.084;2022-12-13T10:18:30;98776.22;;;0.44;100.00
53011;BME280;42803;55.762;38.084;2022-12-13T10:21:02;98774.75;;;0.46;100.00
53011;BME280;42803;55.762;38.084;2022-12-13T10:23:32;98777.16;;;0.53;100.00
53011;BME280;42803;55.762;38.084;2022-12-13T10:26:22;98779.28;;;0.57;100.00
53011;BME280;42803;55.762;38.084;2022-12-13T10:29:00;98775.88;;;0.65;100.00
53011;BME280;42803;55.762;38.084;2022-12-13T10:31:38;98782.94;;;0.59;100.00
53011;BME280;42803;55.762;38.084;2022-12-13T10:34:19;98786.28;;;0.58;100.00
53011;BME280;42803;55.762;38.084;2022-12-13T10:36:50;98785.31;;;0.49;100.00
53011;BME280;42803;55.762;38.084;2022-12-13T10:39:37;98783.38;;;0.55;100.00
53011;BME280;42803;55.762;38.084;2022-12-13T10:42:12;98785.19;;;0.56;100.00
53011;BME280;42803;55.762;38.084;2022-12-13T10:45:09;98795.03;;;0.60;100.00
53011;BME280;42803;55.762;38.084;2022-12-13T10:47:41;98799.22;;;0.51;100.00
53011;BME280;42803;55.762;38.084;2022-12-13T10:50:22;98805.25;;;0.52;100.00
53011;BME280;42803;55.762;38.084;2022-12-13T10:52:53;98803.91;;;0.55;100.00
53011;BME280;42803;55.762;38.084;2022-12-13T10:55:26;98805.16;;;0.59;100.00
53011;BME280;42803;55.762;38.084;2022-12-13T10:57:59;98814.94;;;0.54;100.00
53011;BME280;42803;55.762;38.084;2022-12-13T11:00:32;98814.94;;;0.54;100.00
53011;BME280;42803;55.762;38.084;2022-12-13T11:03:03;98815.09;;;0.56;100.00
53011;BME280;42803;55.762;38.084;2022-12-13T11:05:34;98816.75;;;0.55;100.00
53011;BME280;42803;55.762;38.084;2022-12-13T11:08:15;98817.22;;;0.60;100.00
53011;BME280;42803;55.762;38.084;2022-12-13T11:10:56;98826.44;;;0.58;100.00
53011;BME280;42803;55.762;38.084;2022-12-13T11:13:32;98827.19;;;0.57;100.00
53011;BME280;42803;55.762;38.084;2022-12-13T11:16:19;98825.50;;;0.57;100.00
53011;BME280;42803;55.762;38.084;2022-12-13T11:18:54;98827.50;;;0.60;100.00
53011;BME280;42803;55.762;38.084;2022-12-13T11:21:26;98828.25;;;0.59;100.00
53011;BME280;42803;55.762;38.084;2022-12-13T11:23:57;98818.13;;;0.60;100.00
53011;BME280;42803;55.762;38.084;2022-12-13T11:26:30;98817.41;;;0.61;100.00
53011;BME280;42803;55.762;38.084;2022-12-13T11:32:14;98813.47;;;0.65;100.00
53011;BME280;42803;55.762;38.084;2022-12-13T11:34:58;98814.84;;;0.61;100.00
53011;BME280;42803;55.762;38.084;2022-12-13T11:37:32;98817.41;;;0.61;100.00
53011;BME280;42803;55.762;38.084;2022-12-13T11:40:11;98822.38;;;0.60;100.00
53011;BME280;42803;55.762;38.084;2022-12-13T11:42:44;98822.41;;;0.68;100.00
53011;BME280;42803;55.762;38.084;2022-12-13T11:45:19;98826.50;;;0.66;100.00
53011;BME280;42803;55.762;38.084;2022-12-13T11:47:58;98828.47;;;0.69;100.00
53011;BME280;42803;55.762;38.084;2022-12-13T11:50:34;98837.78;;;0.84;100.00
53011;BME280;42803;55.762;38.084;2022-12-13T11:53:18;98833.09;;;0.89;100.00
53011;BME280;42803;55.762;38.084;2022-12-13T11:55:53;98843.34;;;0.80;100.00
53011;BME280;42803;55.762;38.084;2022-12-13T11:58:28;98853.22;;;0.68;100.00
53011;BME280;42803;55.762;38.084;2022-12-13T12:01:24;98851.53;;;0.60;100.00
53011;BME280;42803;55.762;38.084;2022-12-13T12:03:59;98862.41;;;0.58;100.00
53011;BME280;42803;55.762;38.084;2022-12-13T12:06:38;98864.78;;;0.56;100.00
53011;BME280;42803;55.762;38.084;2022-12-13T12:09:13;98870.19;;;0.51;100.00
53011;BME280;42803;55.762;38.084;2022-12-13T12:11:47;98874.59;;;0.52;100.00
53011;BME280;42803;55.762;38.084;2022-12-13T12:14:23;98875.34;;;0.51;100.00
53011;BME280;42803;55.762;38.084;2022-12-13T12:16:58;98883.28;;;0.45;100.00
53011;BME280;42803;55.762;38.084;2022-12-13T12:19:32;98887.38;;;0.43;100.00
53011;BME280;42803;55.762;38.084;2022-12-13T12:22:14;98906.19;;;0.35;100.00
53011;BME280;42803;55.762;38.084;2022-12-13T12:24:58;98906.28;;;0.28;100.00
53011;BME280;42803;55.762;38.084;2022-12-13T12:27:39;98914.06;;;0.20;100.00
53011;BME280;42803;55.762;38.084;2022-12-13T12:30:18;98912.25;;;0.19;100.00
53011;BME280;42803;55.762;38.084;2022-12-13T12:32:53;98897.28;;;0.15;100.00
53011;BME280;42803;55.762;38.084;2022-12-13T12:35:55;98901.31;;;0.13;100.00
53011;BME280;42803;55.762;38.084;2022-12-13T12:38:53;98895.09;;;0.11;100.00
53011;BME280;42803;55.762;38.084;2022-12-13T12:41:43;98890.91;;;0.12;100.00
53011;BME280;42803;55.762;38.084;2022-12-13T12:44:24;98896.03;;;0.12;100.00
53011;BME280;42803;55.762;38.084;2022-12-13T12:47:09;98896.47;;;0.08;100.00
53011;BME280;42803;55.762;38.084;2022-12-13T12:50:21;98897.78;;;0.04;100.00
53011;BME280;42803;55.762;38.084;2022-12-13T12:52:59;98888.50;;;-0.03;100.00
53011;BME280;42803;55.762;38.084;2022-12-13T12:55:41;98891.22;;;-0.01;100.00
53011;BME280;42803;55.762;38.084;2022-12-13T12:58:19;98899.69;;;-0.02;100.00
53011;BME280;42803;55.762;38.084;2022-12-13T13:01:06;98899.34;;;-0.05;100.00
53011;BME280;42803;55.762;38.084;2022-12-13T13:03:41;98889.34;;;-0.11;100.00
53011;BME280;42803;55.762;38.084;2022-12-13T13:06:13;98886.25;;;-0.15;100.00
53011;BME280;42803;55.762;38.084;2022-12-13T13:08:47;98883.88;;;-0.14;100.00
53011;BME280;42803;55.762;38.084;2022-12-13T13:11:25;98884.78;;;-0.13;100.00
53011;BME280;42803;55.762;38.084;2022-12-13T13:14:04;98885.53;;;-0.14;100.00
53011;BME280;42803;55.762;38.084;2022-12-13T13:16:37;98892.88;;;-0.17;100.00
53011;BME280;42803;55.762;38.084;2022-12-13T13:25:44;98895.53;;;-0.25;100.00
53011;BME280;42803;55.762;38.084;2022-12-13T13:28:43;98894.97;;;-0.22;100.00
53011;BME280;42803;55.762;38.084;2022-12-13T13:31:12;98894.06;;;-0.22;100.00
53011;BME280;42803;55.762;38.084;2022-12-13T13:33:44;98897.53;;;-0.22;100.00
53011;BME280;42803;55.762;38.084;2022-12-13T13:39:37;98894.69;;;-0.16;100.00
53011;BME280;42803;55.762;38.084;2022-12-13T13:42:21;98886.84;;;-0.18;100.00
53011;BME280;42803;55.762;38.084;2022-12-13T13:45:00;98887.28;;;-0.22;100.00